<?xml version="1.0"?>
<gpx
 version="1.0"
 creator="Satmap Active 10"
 xmlns:xsi="http://www.w3.org/2001/XMLSchema-instance"
 xmlns="http://www.topografix.com/GPX/1/0"
 xsi:schemaLocation="http://www.topografix.com/GPX/1/0 http://www.topografix.com/GPX/1/0/gpx.xsd">
<time>2021-03-10T12:53:36Z</time>
<trk>
<name>User Track</name>
<desc>Track 1</desc>
<number>1</number>
<trkseg>
<trkpt lat="52.019368" lon="05.679876"><ele>16</ele><time>2021-03-10T12:53:36Z</time><cmt>0.0 kmh</cmt></trkpt>
<trkpt lat="52.019265" lon="05.680020"><ele>25</ele><time>2021-03-10T12:54:02Z</time><cmt>5.0 kmh</cmt></trkpt>
<trkpt lat="52.019225" lon="05.680070"><ele>26</ele><time>2021-03-10T12:54:09Z</time><cmt>4.3 kmh</cmt></trkpt>
<trkpt lat="52.019194" lon="05.680061"><ele>31</ele><time>2021-03-10T12:54:45Z</time><cmt>2.9 kmh</cmt></trkpt>
<trkpt lat="52.019164" lon="05.680051"><ele>30</ele><time>2021-03-10T12:54:48Z</time><cmt>5.0 kmh</cmt></trkpt>
<trkpt lat="52.019083" lon="05.680072"><ele>25</ele><time>2021-03-10T12:55:00Z</time><cmt>5.0 kmh</cmt></trkpt>
<trkpt lat="52.019021" lon="05.680151"><ele>22</ele><time>2021-03-10T12:55:15Z</time><cmt>5.0 kmh</cmt></trkpt>
<trkpt lat="52.018980" lon="05.680206"><ele>23</ele><time>2021-03-10T12:55:21Z</time><cmt>4.3 kmh</cmt></trkpt>
<trkpt lat="52.018906" lon="05.680249"><ele>25</ele><time>2021-03-10T12:55:30Z</time><cmt>5.0 kmh</cmt></trkpt>
<trkpt lat="52.018851" lon="05.680273"><ele>27</ele><time>2021-03-10T12:55:33Z</time><cmt>5.3 kmh</cmt></trkpt>
<trkpt lat="52.018806" lon="05.680272"><ele>27</ele><time>2021-03-10T12:55:36Z</time><cmt>5.1 kmh</cmt></trkpt>
<trkpt lat="52.018764" lon="05.680291"><ele>27</ele><time>2021-03-10T12:55:42Z</time><cmt>3.5 kmh</cmt></trkpt>
<trkpt lat="52.018723" lon="05.680306"><ele>24</ele><time>2021-03-10T12:55:48Z</time><cmt>3.5 kmh</cmt></trkpt>
<trkpt lat="52.018689" lon="05.680328"><ele>24</ele><time>2021-03-10T12:55:50Z</time><cmt>5.0 kmh</cmt></trkpt>
<trkpt lat="52.018645" lon="05.680367"><ele>23</ele><time>2021-03-10T12:55:52Z</time><cmt>5.0 kmh</cmt></trkpt>
<trkpt lat="52.018604" lon="05.680395"><ele>23</ele><time>2021-03-10T12:55:54Z</time><cmt>5.5 kmh</cmt></trkpt>
<trkpt lat="52.018570" lon="05.680414"><ele>23</ele><time>2021-03-10T12:55:56Z</time><cmt>5.5 kmh</cmt></trkpt>
<trkpt lat="52.018515" lon="05.680491"><ele>24</ele><time>2021-03-10T12:56:03Z</time><cmt>5.0 kmh</cmt></trkpt>
<trkpt lat="52.018569" lon="05.680496"><ele>27</ele><time>2021-03-10T12:56:10Z</time><cmt>4.8 kmh</cmt></trkpt>
<trkpt lat="52.018647" lon="05.680465"><ele>28</ele><time>2021-03-10T12:56:15Z</time><cmt>5.0 kmh</cmt></trkpt>
<trkpt lat="52.018683" lon="05.680417"><ele>29</ele><time>2021-03-10T12:56:21Z</time><cmt>4.8 kmh</cmt></trkpt>
<trkpt lat="52.018716" lon="05.680387"><ele>30</ele><time>2021-03-10T12:56:24Z</time><cmt>5.3 kmh</cmt></trkpt>
<trkpt lat="52.018669" lon="05.680425"><ele>31</ele><time>2021-03-10T12:56:33Z</time><cmt>4.3 kmh</cmt></trkpt>
<trkpt lat="52.018616" lon="05.680459"><ele>31</ele><time>2021-03-10T12:56:36Z</time><cmt>5.0 kmh</cmt></trkpt>
<trkpt lat="52.018583" lon="05.680501"><ele>32</ele><time>2021-03-10T12:56:38Z</time><cmt>5.0 kmh</cmt></trkpt>
<trkpt lat="52.018549" lon="05.680547"><ele>32</ele><time>2021-03-10T12:56:40Z</time><cmt>5.0 kmh</cmt></trkpt>
<trkpt lat="52.018504" lon="05.680608"><ele>33</ele><time>2021-03-10T12:56:43Z</time><cmt>5.0 kmh</cmt></trkpt>
<trkpt lat="52.018417" lon="05.680621"><ele>33</ele><time>2021-03-10T12:56:47Z</time><cmt>5.0 kmh</cmt></trkpt>
<trkpt lat="52.018367" lon="05.680635"><ele>32</ele><time>2021-03-10T12:56:49Z</time><cmt>5.0 kmh</cmt></trkpt>
<trkpt lat="52.018308" lon="05.680658"><ele>32</ele><time>2021-03-10T12:56:52Z</time><cmt>5.0 kmh</cmt></trkpt>
<trkpt lat="52.018252" lon="05.680687"><ele>32</ele><time>2021-03-10T12:56:54Z</time><cmt>5.5 kmh</cmt></trkpt>
<trkpt lat="52.018204" lon="05.680710"><ele>32</ele><time>2021-03-10T12:56:56Z</time><cmt>5.5 kmh</cmt></trkpt>
<trkpt lat="52.018144" lon="05.680744"><ele>33</ele><time>2021-03-10T12:56:58Z</time><cmt>6.2 kmh</cmt></trkpt>
<trkpt lat="52.018099" lon="05.680783"><ele>33</ele><time>2021-03-10T12:57:00Z</time><cmt>5.1 kmh</cmt></trkpt>
<trkpt lat="52.018066" lon="05.680798"><ele>33</ele><time>2021-03-10T12:57:04Z</time><cmt>5.1 kmh</cmt></trkpt>
<trkpt lat="52.018015" lon="05.680801"><ele>27</ele><time>2021-03-10T12:57:18Z</time><cmt>4.8 kmh</cmt></trkpt>
<trkpt lat="52.017982" lon="05.680826"><ele>26</ele><time>2021-03-10T12:57:20Z</time><cmt>5.0 kmh</cmt></trkpt>
<trkpt lat="52.017939" lon="05.680856"><ele>26</ele><time>2021-03-10T12:57:22Z</time><cmt>5.0 kmh</cmt></trkpt>
<trkpt lat="52.017902" lon="05.680883"><ele>25</ele><time>2021-03-10T12:57:24Z</time><cmt>5.0 kmh</cmt></trkpt>
<trkpt lat="52.017865" lon="05.680912"><ele>25</ele><time>2021-03-10T12:57:26Z</time><cmt>5.0 kmh</cmt></trkpt>
<trkpt lat="52.017825" lon="05.680900"><ele>24</ele><time>2021-03-10T12:57:32Z</time><cmt>3.9 kmh</cmt></trkpt>
<trkpt lat="52.017780" lon="05.680939"><ele>24</ele><time>2021-03-10T12:57:35Z</time><cmt>5.0 kmh</cmt></trkpt>
<trkpt lat="52.017743" lon="05.680977"><ele>25</ele><time>2021-03-10T12:57:39Z</time><cmt>3.9 kmh</cmt></trkpt>
<trkpt lat="52.017708" lon="05.681004"><ele>26</ele><time>2021-03-10T12:57:41Z</time><cmt>5.0 kmh</cmt></trkpt>
<trkpt lat="52.017674" lon="05.681015"><ele>27</ele><time>2021-03-10T12:57:45Z</time><cmt>2.9 kmh</cmt></trkpt>
<trkpt lat="52.017650" lon="05.680973"><ele>26</ele><time>2021-03-10T12:57:53Z</time><cmt>2.6 kmh</cmt></trkpt>
<trkpt lat="52.017615" lon="05.680977"><ele>25</ele><time>2021-03-10T12:57:58Z</time><cmt>2.9 kmh</cmt></trkpt>
<trkpt lat="52.017585" lon="05.680990"><ele>24</ele><time>2021-03-10T12:58:00Z</time><cmt>5.0 kmh</cmt></trkpt>
<trkpt lat="52.017554" lon="05.681007"><ele>24</ele><time>2021-03-10T12:58:04Z</time><cmt>2.9 kmh</cmt></trkpt>
<trkpt lat="52.017525" lon="05.681005"><ele>24</ele><time>2021-03-10T12:58:07Z</time><cmt>5.0 kmh</cmt></trkpt>
<trkpt lat="52.017488" lon="05.681020"><ele>23</ele><time>2021-03-10T12:58:09Z</time><cmt>5.0 kmh</cmt></trkpt>
<trkpt lat="52.017435" lon="05.681060"><ele>22</ele><time>2021-03-10T12:58:14Z</time><cmt>5.0 kmh</cmt></trkpt>
<trkpt lat="52.017408" lon="05.681103"><ele>21</ele><time>2021-03-10T12:58:19Z</time><cmt>3.5 kmh</cmt></trkpt>
<trkpt lat="52.017379" lon="05.681141"><ele>22</ele><time>2021-03-10T12:58:22Z</time><cmt>5.0 kmh</cmt></trkpt>
<trkpt lat="52.017337" lon="05.681191"><ele>22</ele><time>2021-03-10T12:58:24Z</time><cmt>5.0 kmh</cmt></trkpt>
<trkpt lat="52.017312" lon="05.681216"><ele>22</ele><time>2021-03-10T12:58:25Z</time><cmt>5.0 kmh</cmt></trkpt>
<trkpt lat="52.017270" lon="05.681257"><ele>22</ele><time>2021-03-10T12:58:27Z</time><cmt>5.2 kmh</cmt></trkpt>
<trkpt lat="52.017228" lon="05.681282"><ele>22</ele><time>2021-03-10T12:58:29Z</time><cmt>6.6 kmh</cmt></trkpt>
<trkpt lat="52.017191" lon="05.681250"><ele>21</ele><time>2021-03-10T12:58:35Z</time><cmt>3.9 kmh</cmt></trkpt>
<trkpt lat="52.017141" lon="05.681264"><ele>20</ele><time>2021-03-10T12:58:41Z</time><cmt>4.8 kmh</cmt></trkpt>
<trkpt lat="52.017104" lon="05.681293"><ele>19</ele><time>2021-03-10T12:58:44Z</time><cmt>5.0 kmh</cmt></trkpt>
<trkpt lat="52.017061" lon="05.681321"><ele>19</ele><time>2021-03-10T12:58:47Z</time><cmt>5.0 kmh</cmt></trkpt>
<trkpt lat="52.017018" lon="05.681352"><ele>19</ele><time>2021-03-10T12:58:50Z</time><cmt>5.0 kmh</cmt></trkpt>
<trkpt lat="52.016978" lon="05.681372"><ele>19</ele><time>2021-03-10T12:58:53Z</time><cmt>5.0 kmh</cmt></trkpt>
<trkpt lat="52.016945" lon="05.681373"><ele>19</ele><time>2021-03-10T12:58:55Z</time><cmt>5.0 kmh</cmt></trkpt>
<trkpt lat="52.016916" lon="05.681392"><ele>19</ele><time>2021-03-10T12:58:57Z</time><cmt>5.6 kmh</cmt></trkpt>
<trkpt lat="52.016885" lon="05.681431"><ele>19</ele><time>2021-03-10T12:59:00Z</time><cmt>5.0 kmh</cmt></trkpt>
<trkpt lat="52.016859" lon="05.681465"><ele>18</ele><time>2021-03-10T12:59:03Z</time><cmt>5.0 kmh</cmt></trkpt>
<trkpt lat="52.016825" lon="05.681504"><ele>18</ele><time>2021-03-10T12:59:06Z</time><cmt>5.0 kmh</cmt></trkpt>
<trkpt lat="52.016782" lon="05.681526"><ele>18</ele><time>2021-03-10T12:59:09Z</time><cmt>6.3 kmh</cmt></trkpt>
<trkpt lat="52.016752" lon="05.681551"><ele>18</ele><time>2021-03-10T12:59:11Z</time><cmt>5.2 kmh</cmt></trkpt>
<trkpt lat="52.016710" lon="05.681575"><ele>19</ele><time>2021-03-10T12:59:19Z</time><cmt>4.8 kmh</cmt></trkpt>
<trkpt lat="52.016663" lon="05.681600"><ele>20</ele><time>2021-03-10T12:59:21Z</time><cmt>5.0 kmh</cmt></trkpt>
<trkpt lat="52.016628" lon="05.681634"><ele>20</ele><time>2021-03-10T12:59:23Z</time><cmt>5.0 kmh</cmt></trkpt>
<trkpt lat="52.016594" lon="05.681682"><ele>21</ele><time>2021-03-10T12:59:26Z</time><cmt>5.0 kmh</cmt></trkpt>
<trkpt lat="52.016558" lon="05.681772"><ele>22</ele><time>2021-03-10T12:59:31Z</time><cmt>5.0 kmh</cmt></trkpt>
<trkpt lat="52.016527" lon="05.681777"><ele>23</ele><time>2021-03-10T12:59:33Z</time><cmt>5.0 kmh</cmt></trkpt>
<trkpt lat="52.016488" lon="05.681791"><ele>23</ele><time>2021-03-10T12:59:35Z</time><cmt>5.0 kmh</cmt></trkpt>
<trkpt lat="52.016449" lon="05.681799"><ele>24</ele><time>2021-03-10T12:59:37Z</time><cmt>5.4 kmh</cmt></trkpt>
<trkpt lat="52.016401" lon="05.681816"><ele>24</ele><time>2021-03-10T12:59:39Z</time><cmt>6.2 kmh</cmt></trkpt>
<trkpt lat="52.016365" lon="05.681836"><ele>24</ele><time>2021-03-10T12:59:41Z</time><cmt>5.5 kmh</cmt></trkpt>
<trkpt lat="52.016298" lon="05.681845"><ele>20</ele><time>2021-03-10T12:59:52Z</time><cmt>5.0 kmh</cmt></trkpt>
<trkpt lat="52.016264" lon="05.681858"><ele>20</ele><time>2021-03-10T12:59:54Z</time><cmt>5.0 kmh</cmt></trkpt>
<trkpt lat="52.016309" lon="05.681916"><ele>20</ele><time>2021-03-10T13:00:04Z</time><cmt>5.0 kmh</cmt></trkpt>
<trkpt lat="52.016338" lon="05.681977"><ele>20</ele><time>2021-03-10T13:00:09Z</time><cmt>4.3 kmh</cmt></trkpt>
<trkpt lat="52.016373" lon="05.681998"><ele>20</ele><time>2021-03-10T13:00:12Z</time><cmt>5.0 kmh</cmt></trkpt>
<trkpt lat="52.016416" lon="05.682020"><ele>20</ele><time>2021-03-10T13:00:16Z</time><cmt>4.3 kmh</cmt></trkpt>
<trkpt lat="52.016441" lon="05.682081"><ele>21</ele><time>2021-03-10T13:00:20Z</time><cmt>5.1 kmh</cmt></trkpt>
<trkpt lat="52.016450" lon="05.682162"><ele>21</ele><time>2021-03-10T13:00:23Z</time><cmt>6.0 kmh</cmt></trkpt>
<trkpt lat="52.016448" lon="05.682223"><ele>21</ele><time>2021-03-10T13:00:26Z</time><cmt>4.4 kmh</cmt></trkpt>
<trkpt lat="52.016468" lon="05.682266"><ele>21</ele><time>2021-03-10T13:00:29Z</time><cmt>5.0 kmh</cmt></trkpt>
<trkpt lat="52.016492" lon="05.682326"><ele>20</ele><time>2021-03-10T13:00:34Z</time><cmt>3.5 kmh</cmt></trkpt>
<trkpt lat="52.016517" lon="05.682394"><ele>20</ele><time>2021-03-10T13:00:38Z</time><cmt>4.3 kmh</cmt></trkpt>
<trkpt lat="52.016550" lon="05.682422"><ele>19</ele><time>2021-03-10T13:00:40Z</time><cmt>5.0 kmh</cmt></trkpt>
<trkpt lat="52.016582" lon="05.682472"><ele>19</ele><time>2021-03-10T13:00:43Z</time><cmt>5.0 kmh</cmt></trkpt>
<trkpt lat="52.016614" lon="05.682531"><ele>18</ele><time>2021-03-10T13:00:46Z</time><cmt>5.0 kmh</cmt></trkpt>
<trkpt lat="52.016601" lon="05.682619"><ele>18</ele><time>2021-03-10T13:00:49Z</time><cmt>5.0 kmh</cmt></trkpt>
<trkpt lat="52.016597" lon="05.682693"><ele>18</ele><time>2021-03-10T13:00:52Z</time><cmt>5.0 kmh</cmt></trkpt>
<trkpt lat="52.016606" lon="05.682773"><ele>18</ele><time>2021-03-10T13:00:56Z</time><cmt>6.1 kmh</cmt></trkpt>
<trkpt lat="52.016577" lon="05.682831"><ele>19</ele><time>2021-03-10T13:00:59Z</time><cmt>5.0 kmh</cmt></trkpt>
<trkpt lat="52.016542" lon="05.682904"><ele>19</ele><time>2021-03-10T13:01:01Z</time><cmt>6.7 kmh</cmt></trkpt>
<trkpt lat="52.016513" lon="05.682990"><ele>20</ele><time>2021-03-10T13:01:03Z</time><cmt>7.1 kmh</cmt></trkpt>
<trkpt lat="52.016482" lon="05.683044"><ele>21</ele><time>2021-03-10T13:01:05Z</time><cmt>7.1 kmh</cmt></trkpt>
<trkpt lat="52.016439" lon="05.683088"><ele>22</ele><time>2021-03-10T13:01:07Z</time><cmt>8.3 kmh</cmt></trkpt>
<trkpt lat="52.016391" lon="05.683095"><ele>24</ele><time>2021-03-10T13:01:11Z</time><cmt>6.0 kmh</cmt></trkpt>
<trkpt lat="52.016346" lon="05.683070"><ele>24</ele><time>2021-03-10T13:01:18Z</time><cmt>5.0 kmh</cmt></trkpt>
<trkpt lat="52.016310" lon="05.683068"><ele>24</ele><time>2021-03-10T13:01:21Z</time><cmt>5.0 kmh</cmt></trkpt>
<trkpt lat="52.016266" lon="05.683066"><ele>24</ele><time>2021-03-10T13:01:23Z</time><cmt>5.8 kmh</cmt></trkpt>
<trkpt lat="52.016230" lon="05.683067"><ele>24</ele><time>2021-03-10T13:01:26Z</time><cmt>5.8 kmh</cmt></trkpt>
<trkpt lat="52.016191" lon="05.683063"><ele>25</ele><time>2021-03-10T13:01:30Z</time><cmt>5.1 kmh</cmt></trkpt>
<trkpt lat="52.016154" lon="05.683020"><ele>26</ele><time>2021-03-10T13:01:35Z</time><cmt>5.0 kmh</cmt></trkpt>
<trkpt lat="52.016106" lon="05.683036"><ele>27</ele><time>2021-03-10T13:01:39Z</time><cmt>5.1 kmh</cmt></trkpt>
<trkpt lat="52.016046" lon="05.683074"><ele>27</ele><time>2021-03-10T13:01:43Z</time><cmt>5.0 kmh</cmt></trkpt>
<trkpt lat="52.016000" lon="05.683093"><ele>27</ele><time>2021-03-10T13:01:46Z</time><cmt>6.0 kmh</cmt></trkpt>
<trkpt lat="52.015960" lon="05.683104"><ele>27</ele><time>2021-03-10T13:01:49Z</time><cmt>6.0 kmh</cmt></trkpt>
<trkpt lat="52.015903" lon="05.683137"><ele>27</ele><time>2021-03-10T13:01:52Z</time><cmt>6.7 kmh</cmt></trkpt>
<trkpt lat="52.015859" lon="05.683137"><ele>24</ele><time>2021-03-10T13:02:03Z</time><cmt>4.4 kmh</cmt></trkpt>
<trkpt lat="52.015822" lon="05.683144"><ele>21</ele><time>2021-03-10T13:02:10Z</time><cmt>5.0 kmh</cmt></trkpt>
<trkpt lat="52.015783" lon="05.683181"><ele>19</ele><time>2021-03-10T13:02:13Z</time><cmt>5.5 kmh</cmt></trkpt>
<trkpt lat="52.015742" lon="05.683203"><ele>18</ele><time>2021-03-10T13:02:16Z</time><cmt>4.4 kmh</cmt></trkpt>
<trkpt lat="52.015701" lon="05.683212"><ele>17</ele><time>2021-03-10T13:02:21Z</time><cmt>3.5 kmh</cmt></trkpt>
<trkpt lat="52.015653" lon="05.683207"><ele>15</ele><time>2021-03-10T13:02:26Z</time><cmt>4.8 kmh</cmt></trkpt>
<trkpt lat="52.015615" lon="05.683240"><ele>15</ele><time>2021-03-10T13:02:29Z</time><cmt>5.0 kmh</cmt></trkpt>
<trkpt lat="52.015581" lon="05.683277"><ele>14</ele><time>2021-03-10T13:02:33Z</time><cmt>3.5 kmh</cmt></trkpt>
<trkpt lat="52.015547" lon="05.683311"><ele>14</ele><time>2021-03-10T13:02:35Z</time><cmt>6.0 kmh</cmt></trkpt>
<trkpt lat="52.015513" lon="05.683352"><ele>13</ele><time>2021-03-10T13:02:39Z</time><cmt>4.4 kmh</cmt></trkpt>
<trkpt lat="52.015474" lon="05.683381"><ele>13</ele><time>2021-03-10T13:02:41Z</time><cmt>7.3 kmh</cmt></trkpt>
<trkpt lat="52.015427" lon="05.683439"><ele>13</ele><time>2021-03-10T13:02:48Z</time><cmt>5.0 kmh</cmt></trkpt>
<trkpt lat="52.015387" lon="05.683469"><ele>13</ele><time>2021-03-10T13:02:52Z</time><cmt>3.5 kmh</cmt></trkpt>
<trkpt lat="52.015341" lon="05.683515"><ele>12</ele><time>2021-03-10T13:02:55Z</time><cmt>5.0 kmh</cmt></trkpt>
<trkpt lat="52.015350" lon="05.683604"><ele>11</ele><time>2021-03-10T13:03:01Z</time><cmt>5.0 kmh</cmt></trkpt>
<trkpt lat="52.015314" lon="05.683683"><ele>12</ele><time>2021-03-10T13:03:08Z</time><cmt>5.0 kmh</cmt></trkpt>
<trkpt lat="52.015272" lon="05.683733"><ele>12</ele><time>2021-03-10T13:03:11Z</time><cmt>5.0 kmh</cmt></trkpt>
<trkpt lat="52.015227" lon="05.683761"><ele>13</ele><time>2021-03-10T13:03:15Z</time><cmt>5.0 kmh</cmt></trkpt>
<trkpt lat="52.015152" lon="05.683831"><ele>16</ele><time>2021-03-10T13:03:23Z</time><cmt>5.0 kmh</cmt></trkpt>
<trkpt lat="52.015122" lon="05.683855"><ele>17</ele><time>2021-03-10T13:03:26Z</time><cmt>5.0 kmh</cmt></trkpt>
<trkpt lat="52.015089" lon="05.683894"><ele>17</ele><time>2021-03-10T13:03:29Z</time><cmt>5.0 kmh</cmt></trkpt>
<trkpt lat="52.015060" lon="05.683948"><ele>18</ele><time>2021-03-10T13:03:33Z</time><cmt>3.5 kmh</cmt></trkpt>
<trkpt lat="52.015028" lon="05.683999"><ele>19</ele><time>2021-03-10T13:03:36Z</time><cmt>5.3 kmh</cmt></trkpt>
<trkpt lat="52.015000" lon="05.684047"><ele>20</ele><time>2021-03-10T13:03:38Z</time><cmt>5.2 kmh</cmt></trkpt>
<trkpt lat="52.014978" lon="05.684105"><ele>21</ele><time>2021-03-10T13:03:43Z</time><cmt>4.4 kmh</cmt></trkpt>
<trkpt lat="52.014947" lon="05.684151"><ele>21</ele><time>2021-03-10T13:03:47Z</time><cmt>3.9 kmh</cmt></trkpt>
<trkpt lat="52.014925" lon="05.684199"><ele>21</ele><time>2021-03-10T13:03:49Z</time><cmt>5.0 kmh</cmt></trkpt>
<trkpt lat="52.014897" lon="05.684268"><ele>21</ele><time>2021-03-10T13:03:55Z</time><cmt>4.8 kmh</cmt></trkpt>
<trkpt lat="52.014864" lon="05.684305"><ele>20</ele><time>2021-03-10T13:03:58Z</time><cmt>5.0 kmh</cmt></trkpt>
<trkpt lat="52.014842" lon="05.684382"><ele>20</ele><time>2021-03-10T13:04:03Z</time><cmt>4.3 kmh</cmt></trkpt>
<trkpt lat="52.014796" lon="05.684448"><ele>20</ele><time>2021-03-10T13:04:16Z</time><cmt>5.0 kmh</cmt></trkpt>
<trkpt lat="52.014742" lon="05.684508"><ele>20</ele><time>2021-03-10T13:04:22Z</time><cmt>5.0 kmh</cmt></trkpt>
<trkpt lat="52.014705" lon="05.684559"><ele>21</ele><time>2021-03-10T13:04:24Z</time><cmt>7.5 kmh</cmt></trkpt>
<trkpt lat="52.014677" lon="05.684640"><ele>21</ele><time>2021-03-10T13:04:28Z</time><cmt>5.8 kmh</cmt></trkpt>
<trkpt lat="52.014640" lon="05.684674"><ele>21</ele><time>2021-03-10T13:04:30Z</time><cmt>5.0 kmh</cmt></trkpt>
<trkpt lat="52.014623" lon="05.684765"><ele>20</ele><time>2021-03-10T13:04:37Z</time><cmt>5.0 kmh</cmt></trkpt>
<trkpt lat="52.014604" lon="05.684845"><ele>19</ele><time>2021-03-10T13:04:40Z</time><cmt>5.1 kmh</cmt></trkpt>
<trkpt lat="52.014569" lon="05.684900"><ele>19</ele><time>2021-03-10T13:04:44Z</time><cmt>5.0 kmh</cmt></trkpt>
<trkpt lat="52.014538" lon="05.684953"><ele>18</ele><time>2021-03-10T13:04:50Z</time><cmt>4.3 kmh</cmt></trkpt>
<trkpt lat="52.014508" lon="05.685013"><ele>19</ele><time>2021-03-10T13:04:53Z</time><cmt>5.0 kmh</cmt></trkpt>
<trkpt lat="52.014503" lon="05.685090"><ele>20</ele><time>2021-03-10T13:04:57Z</time><cmt>4.8 kmh</cmt></trkpt>
<trkpt lat="52.014478" lon="05.685142"><ele>20</ele><time>2021-03-10T13:04:59Z</time><cmt>5.4 kmh</cmt></trkpt>
<trkpt lat="52.014437" lon="05.685195"><ele>20</ele><time>2021-03-10T13:05:01Z</time><cmt>5.4 kmh</cmt></trkpt>
<trkpt lat="52.014406" lon="05.685228"><ele>20</ele><time>2021-03-10T13:05:03Z</time><cmt>5.3 kmh</cmt></trkpt>
<trkpt lat="52.014359" lon="05.685285"><ele>22</ele><time>2021-03-10T13:05:08Z</time><cmt>5.0 kmh</cmt></trkpt>
<trkpt lat="52.014327" lon="05.685346"><ele>23</ele><time>2021-03-10T13:05:12Z</time><cmt>4.3 kmh</cmt></trkpt>
<trkpt lat="52.014296" lon="05.685385"><ele>24</ele><time>2021-03-10T13:05:15Z</time><cmt>5.4 kmh</cmt></trkpt>
<trkpt lat="52.014277" lon="05.685440"><ele>24</ele><time>2021-03-10T13:05:18Z</time><cmt>5.0 kmh</cmt></trkpt>
<trkpt lat="52.014267" lon="05.685538"><ele>24</ele><time>2021-03-10T13:05:24Z</time><cmt>5.0 kmh</cmt></trkpt>
<trkpt lat="52.014273" lon="05.685607"><ele>24</ele><time>2021-03-10T13:05:29Z</time><cmt>3.9 kmh</cmt></trkpt>
<trkpt lat="52.014246" lon="05.685675"><ele>24</ele><time>2021-03-10T13:05:32Z</time><cmt>8.1 kmh</cmt></trkpt>
<trkpt lat="52.014239" lon="05.685756"><ele>23</ele><time>2021-03-10T13:05:37Z</time><cmt>5.0 kmh</cmt></trkpt>
<trkpt lat="52.014206" lon="05.685833"><ele>23</ele><time>2021-03-10T13:05:42Z</time><cmt>5.0 kmh</cmt></trkpt>
<trkpt lat="52.014174" lon="05.685881"><ele>23</ele><time>2021-03-10T13:05:45Z</time><cmt>5.0 kmh</cmt></trkpt>
<trkpt lat="52.014140" lon="05.685922"><ele>23</ele><time>2021-03-10T13:05:47Z</time><cmt>5.0 kmh</cmt></trkpt>
<trkpt lat="52.014110" lon="05.685965"><ele>24</ele><time>2021-03-10T13:05:49Z</time><cmt>5.0 kmh</cmt></trkpt>
<trkpt lat="52.014073" lon="05.686021"><ele>24</ele><time>2021-03-10T13:05:51Z</time><cmt>6.0 kmh</cmt></trkpt>
<trkpt lat="52.014063" lon="05.686098"><ele>26</ele><time>2021-03-10T13:05:56Z</time><cmt>5.0 kmh</cmt></trkpt>
<trkpt lat="52.014046" lon="05.686163"><ele>26</ele><time>2021-03-10T13:06:01Z</time><cmt>3.9 kmh</cmt></trkpt>
<trkpt lat="52.014029" lon="05.686233"><ele>26</ele><time>2021-03-10T13:06:04Z</time><cmt>5.0 kmh</cmt></trkpt>
<trkpt lat="52.014026" lon="05.686345"><ele>27</ele><time>2021-03-10T13:06:13Z</time><cmt>5.0 kmh</cmt></trkpt>
<trkpt lat="52.014050" lon="05.686415"><ele>27</ele><time>2021-03-10T13:06:17Z</time><cmt>4.3 kmh</cmt></trkpt>
<trkpt lat="52.014054" lon="05.686501"><ele>27</ele><time>2021-03-10T13:06:22Z</time><cmt>5.7 kmh</cmt></trkpt>
<trkpt lat="52.014014" lon="05.686591"><ele>28</ele><time>2021-03-10T13:06:26Z</time><cmt>6.4 kmh</cmt></trkpt>
<trkpt lat="52.013983" lon="05.686639"><ele>29</ele><time>2021-03-10T13:06:29Z</time><cmt>6.8 kmh</cmt></trkpt>
<trkpt lat="52.013952" lon="05.686729"><ele>30</ele><time>2021-03-10T13:06:33Z</time><cmt>6.6 kmh</cmt></trkpt>
<trkpt lat="52.013928" lon="05.686807"><ele>30</ele><time>2021-03-10T13:06:35Z</time><cmt>6.9 kmh</cmt></trkpt>
<trkpt lat="52.013943" lon="05.686884"><ele>29</ele><time>2021-03-10T13:06:38Z</time><cmt>7.5 kmh</cmt></trkpt>
<trkpt lat="52.013961" lon="05.686949"><ele>26</ele><time>2021-03-10T13:06:45Z</time><cmt>3.5 kmh</cmt></trkpt>
<trkpt lat="52.013988" lon="05.687010"><ele>25</ele><time>2021-03-10T13:06:50Z</time><cmt>4.3 kmh</cmt></trkpt>
<trkpt lat="52.014021" lon="05.687018"><ele>25</ele><time>2021-03-10T13:06:52Z</time><cmt>5.4 kmh</cmt></trkpt>
<trkpt lat="52.014030" lon="05.687231"><ele>28</ele><time>2021-03-10T13:07:06Z</time><cmt>5.0 kmh</cmt></trkpt>
<trkpt lat="52.014010" lon="05.687312"><ele>29</ele><time>2021-03-10T13:07:09Z</time><cmt>5.4 kmh</cmt></trkpt>
<trkpt lat="52.013996" lon="05.687379"><ele>28</ele><time>2021-03-10T13:07:12Z</time><cmt>5.0 kmh</cmt></trkpt>
<trkpt lat="52.013991" lon="05.687443"><ele>27</ele><time>2021-03-10T13:07:15Z</time><cmt>5.0 kmh</cmt></trkpt>
<trkpt lat="52.013972" lon="05.687505"><ele>25</ele><time>2021-03-10T13:07:19Z</time><cmt>3.9 kmh</cmt></trkpt>
<trkpt lat="52.013948" lon="05.687580"><ele>23</ele><time>2021-03-10T13:07:22Z</time><cmt>5.0 kmh</cmt></trkpt>
<trkpt lat="52.013958" lon="05.687656"><ele>21</ele><time>2021-03-10T13:07:26Z</time><cmt>4.3 kmh</cmt></trkpt>
<trkpt lat="52.013951" lon="05.687725"><ele>20</ele><time>2021-03-10T13:07:30Z</time><cmt>5.1 kmh</cmt></trkpt>
<trkpt lat="52.013941" lon="05.687808"><ele>19</ele><time>2021-03-10T13:07:33Z</time><cmt>5.7 kmh</cmt></trkpt>
<trkpt lat="52.013924" lon="05.687885"><ele>19</ele><time>2021-03-10T13:07:36Z</time><cmt>5.0 kmh</cmt></trkpt>
<trkpt lat="52.013906" lon="05.687956"><ele>19</ele><time>2021-03-10T13:07:39Z</time><cmt>5.0 kmh</cmt></trkpt>
<trkpt lat="52.013910" lon="05.688040"><ele>18</ele><time>2021-03-10T13:07:46Z</time><cmt>5.4 kmh</cmt></trkpt>
<trkpt lat="52.013869" lon="05.688106"><ele>17</ele><time>2021-03-10T13:07:49Z</time><cmt>5.2 kmh</cmt></trkpt>
<trkpt lat="52.013875" lon="05.688204"><ele>17</ele><time>2021-03-10T13:07:55Z</time><cmt>5.0 kmh</cmt></trkpt>
<trkpt lat="52.013889" lon="05.688294"><ele>19</ele><time>2021-03-10T13:08:00Z</time><cmt>5.0 kmh</cmt></trkpt>
<trkpt lat="52.013917" lon="05.688388"><ele>21</ele><time>2021-03-10T13:08:05Z</time><cmt>5.0 kmh</cmt></trkpt>
<trkpt lat="52.013920" lon="05.688487"><ele>23</ele><time>2021-03-10T13:08:09Z</time><cmt>5.1 kmh</cmt></trkpt>
<trkpt lat="52.013967" lon="05.688509"><ele>24</ele><time>2021-03-10T13:08:13Z</time><cmt>5.0 kmh</cmt></trkpt>
<trkpt lat="52.013994" lon="05.688575"><ele>25</ele><time>2021-03-10T13:08:18Z</time><cmt>4.3 kmh</cmt></trkpt>
<trkpt lat="52.014003" lon="05.688660"><ele>25</ele><time>2021-03-10T13:08:22Z</time><cmt>4.8 kmh</cmt></trkpt>
<trkpt lat="52.013997" lon="05.688731"><ele>25</ele><time>2021-03-10T13:08:25Z</time><cmt>5.0 kmh</cmt></trkpt>
<trkpt lat="52.014006" lon="05.688805"><ele>26</ele><time>2021-03-10T13:08:30Z</time><cmt>4.3 kmh</cmt></trkpt>
<trkpt lat="52.014018" lon="05.688899"><ele>25</ele><time>2021-03-10T13:08:34Z</time><cmt>6.0 kmh</cmt></trkpt>
<trkpt lat="52.014028" lon="05.688978"><ele>25</ele><time>2021-03-10T13:08:37Z</time><cmt>6.0 kmh</cmt></trkpt>
<trkpt lat="52.014044" lon="05.689050"><ele>25</ele><time>2021-03-10T13:08:40Z</time><cmt>5.0 kmh</cmt></trkpt>
<trkpt lat="52.014075" lon="05.689140"><ele>25</ele><time>2021-03-10T13:08:46Z</time><cmt>5.0 kmh</cmt></trkpt>
<trkpt lat="52.014105" lon="05.689206"><ele>26</ele><time>2021-03-10T13:08:50Z</time><cmt>4.3 kmh</cmt></trkpt>
<trkpt lat="52.014084" lon="05.689335"><ele>26</ele><time>2021-03-10T13:08:54Z</time><cmt>7.7 kmh</cmt></trkpt>
<trkpt lat="52.014050" lon="05.689409"><ele>27</ele><time>2021-03-10T13:08:56Z</time><cmt>7.4 kmh</cmt></trkpt>
<trkpt lat="52.014076" lon="05.689497"><ele>26</ele><time>2021-03-10T13:09:01Z</time><cmt>5.0 kmh</cmt></trkpt>
<trkpt lat="52.014135" lon="05.689526"><ele>27</ele><time>2021-03-10T13:09:06Z</time><cmt>5.3 kmh</cmt></trkpt>
<trkpt lat="52.014145" lon="05.689623"><ele>30</ele><time>2021-03-10T13:09:13Z</time><cmt>5.0 kmh</cmt></trkpt>
<trkpt lat="52.014123" lon="05.689700"><ele>30</ele><time>2021-03-10T13:09:15Z</time><cmt>6.6 kmh</cmt></trkpt>
<trkpt lat="52.014144" lon="05.689792"><ele>31</ele><time>2021-03-10T13:09:19Z</time><cmt>5.0 kmh</cmt></trkpt>
<trkpt lat="52.014175" lon="05.689911"><ele>31</ele><time>2021-03-10T13:09:25Z</time><cmt>5.0 kmh</cmt></trkpt>
<trkpt lat="52.014162" lon="05.689998"><ele>30</ele><time>2021-03-10T13:09:28Z</time><cmt>6.3 kmh</cmt></trkpt>
<trkpt lat="52.014146" lon="05.690099"><ele>30</ele><time>2021-03-10T13:09:32Z</time><cmt>5.6 kmh</cmt></trkpt>
<trkpt lat="52.014153" lon="05.690201"><ele>31</ele><time>2021-03-10T13:09:36Z</time><cmt>5.0 kmh</cmt></trkpt>
<trkpt lat="52.014134" lon="05.690304"><ele>33</ele><time>2021-03-10T13:09:40Z</time><cmt>5.1 kmh</cmt></trkpt>
<trkpt lat="52.014206" lon="05.690325"><ele>36</ele><time>2021-03-10T13:09:46Z</time><cmt>5.0 kmh</cmt></trkpt>
<trkpt lat="52.014241" lon="05.690368"><ele>38</ele><time>2021-03-10T13:09:49Z</time><cmt>5.6 kmh</cmt></trkpt>
<trkpt lat="52.014273" lon="05.690433"><ele>39</ele><time>2021-03-10T13:09:52Z</time><cmt>5.2 kmh</cmt></trkpt>
<trkpt lat="52.014310" lon="05.690453"><ele>39</ele><time>2021-03-10T13:09:54Z</time><cmt>5.2 kmh</cmt></trkpt>
<trkpt lat="52.014329" lon="05.690522"><ele>38</ele><time>2021-03-10T13:09:59Z</time><cmt>4.3 kmh</cmt></trkpt>
<trkpt lat="52.014367" lon="05.690553"><ele>36</ele><time>2021-03-10T13:10:02Z</time><cmt>5.0 kmh</cmt></trkpt>
<trkpt lat="52.014405" lon="05.690569"><ele>35</ele><time>2021-03-10T13:10:06Z</time><cmt>3.5 kmh</cmt></trkpt>
<trkpt lat="52.014391" lon="05.690648"><ele>34</ele><time>2021-03-10T13:10:10Z</time><cmt>5.7 kmh</cmt></trkpt>
<trkpt lat="52.014393" lon="05.690784"><ele>31</ele><time>2021-03-10T13:10:17Z</time><cmt>5.0 kmh</cmt></trkpt>
<trkpt lat="52.014423" lon="05.690854"><ele>30</ele><time>2021-03-10T13:10:20Z</time><cmt>5.0 kmh</cmt></trkpt>
<trkpt lat="52.014460" lon="05.690903"><ele>28</ele><time>2021-03-10T13:10:23Z</time><cmt>5.0 kmh</cmt></trkpt>
<trkpt lat="52.014499" lon="05.690964"><ele>27</ele><time>2021-03-10T13:10:26Z</time><cmt>5.3 kmh</cmt></trkpt>
<trkpt lat="52.014516" lon="05.691044"><ele>26</ele><time>2021-03-10T13:10:31Z</time><cmt>4.3 kmh</cmt></trkpt>
<trkpt lat="52.014549" lon="05.691101"><ele>26</ele><time>2021-03-10T13:10:35Z</time><cmt>4.8 kmh</cmt></trkpt>
<trkpt lat="52.014574" lon="05.691149"><ele>25</ele><time>2021-03-10T13:10:38Z</time><cmt>5.0 kmh</cmt></trkpt>
<trkpt lat="52.014608" lon="05.691176"><ele>25</ele><time>2021-03-10T13:10:41Z</time><cmt>5.0 kmh</cmt></trkpt>
<trkpt lat="52.014613" lon="05.691255"><ele>26</ele><time>2021-03-10T13:10:46Z</time><cmt>5.2 kmh</cmt></trkpt>
<trkpt lat="52.014622" lon="05.691354"><ele>27</ele><time>2021-03-10T13:10:49Z</time><cmt>5.0 kmh</cmt></trkpt>
<trkpt lat="52.014633" lon="05.691419"><ele>28</ele><time>2021-03-10T13:10:53Z</time><cmt>3.5 kmh</cmt></trkpt>
<trkpt lat="52.014658" lon="05.691458"><ele>31</ele><time>2021-03-10T13:10:57Z</time><cmt>2.6 kmh</cmt></trkpt>
<trkpt lat="52.014684" lon="05.691504"><ele>32</ele><time>2021-03-10T13:11:00Z</time><cmt>5.1 kmh</cmt></trkpt>
<trkpt lat="52.014710" lon="05.691580"><ele>33</ele><time>2021-03-10T13:11:05Z</time><cmt>5.0 kmh</cmt></trkpt>
<trkpt lat="52.014749" lon="05.691624"><ele>33</ele><time>2021-03-10T13:11:09Z</time><cmt>4.8 kmh</cmt></trkpt>
<trkpt lat="52.014770" lon="05.691712"><ele>33</ele><time>2021-03-10T13:11:14Z</time><cmt>5.0 kmh</cmt></trkpt>
<trkpt lat="52.014784" lon="05.691814"><ele>32</ele><time>2021-03-10T13:11:20Z</time><cmt>5.0 kmh</cmt></trkpt>
<trkpt lat="52.014832" lon="05.691854"><ele>32</ele><time>2021-03-10T13:11:23Z</time><cmt>5.0 kmh</cmt></trkpt>
<trkpt lat="52.014869" lon="05.691917"><ele>32</ele><time>2021-03-10T13:11:28Z</time><cmt>5.0 kmh</cmt></trkpt>
<trkpt lat="52.014903" lon="05.691947"><ele>32</ele><time>2021-03-10T13:11:31Z</time><cmt>5.0 kmh</cmt></trkpt>
<trkpt lat="52.014952" lon="05.691952"><ele>31</ele><time>2021-03-10T13:11:34Z</time><cmt>5.0 kmh</cmt></trkpt>
<trkpt lat="52.014990" lon="05.691956"><ele>31</ele><time>2021-03-10T13:11:36Z</time><cmt>5.0 kmh</cmt></trkpt>
<trkpt lat="52.015021" lon="05.691970"><ele>31</ele><time>2021-03-10T13:11:38Z</time><cmt>5.0 kmh</cmt></trkpt>
<trkpt lat="52.015054" lon="05.692020"><ele>30</ele><time>2021-03-10T13:11:42Z</time><cmt>4.3 kmh</cmt></trkpt>
<trkpt lat="52.015090" lon="05.692080"><ele>30</ele><time>2021-03-10T13:11:45Z</time><cmt>6.0 kmh</cmt></trkpt>
<trkpt lat="52.015134" lon="05.692118"><ele>30</ele><time>2021-03-10T13:11:48Z</time><cmt>5.5 kmh</cmt></trkpt>
<trkpt lat="52.015129" lon="05.692202"><ele>32</ele><time>2021-03-10T13:11:53Z</time><cmt>5.7 kmh</cmt></trkpt>
<trkpt lat="52.015105" lon="05.692259"><ele>33</ele><time>2021-03-10T13:11:55Z</time><cmt>5.3 kmh</cmt></trkpt>
<trkpt lat="52.015161" lon="05.692276"><ele>34</ele><time>2021-03-10T13:12:00Z</time><cmt>7.2 kmh</cmt></trkpt>
<trkpt lat="52.015221" lon="05.692266"><ele>34</ele><time>2021-03-10T13:12:02Z</time><cmt>6.7 kmh</cmt></trkpt>
<trkpt lat="52.015260" lon="05.692274"><ele>32</ele><time>2021-03-10T13:12:06Z</time><cmt>5.1 kmh</cmt></trkpt>
<trkpt lat="52.015255" lon="05.692368"><ele>32</ele><time>2021-03-10T13:12:11Z</time><cmt>5.0 kmh</cmt></trkpt>
<trkpt lat="52.015266" lon="05.692469"><ele>32</ele><time>2021-03-10T13:12:14Z</time><cmt>5.0 kmh</cmt></trkpt>
<trkpt lat="52.015292" lon="05.692532"><ele>34</ele><time>2021-03-10T13:12:17Z</time><cmt>5.0 kmh</cmt></trkpt>
<trkpt lat="52.015302" lon="05.692609"><ele>36</ele><time>2021-03-10T13:12:21Z</time><cmt>4.3 kmh</cmt></trkpt>
<trkpt lat="52.015329" lon="05.692668"><ele>37</ele><time>2021-03-10T13:12:26Z</time><cmt>4.3 kmh</cmt></trkpt>
<trkpt lat="52.015350" lon="05.692759"><ele>39</ele><time>2021-03-10T13:12:33Z</time><cmt>5.0 kmh</cmt></trkpt>
<trkpt lat="52.015387" lon="05.692847"><ele>39</ele><time>2021-03-10T13:12:39Z</time><cmt>5.0 kmh</cmt></trkpt>
<trkpt lat="52.015441" lon="05.692857"><ele>39</ele><time>2021-03-10T13:12:42Z</time><cmt>5.0 kmh</cmt></trkpt>
<trkpt lat="52.015481" lon="05.692887"><ele>39</ele><time>2021-03-10T13:12:45Z</time><cmt>5.0 kmh</cmt></trkpt>
<trkpt lat="52.015513" lon="05.692912"><ele>39</ele><time>2021-03-10T13:12:48Z</time><cmt>5.0 kmh</cmt></trkpt>
<trkpt lat="52.015532" lon="05.693011"><ele>39</ele><time>2021-03-10T13:12:53Z</time><cmt>5.0 kmh</cmt></trkpt>
<trkpt lat="52.015563" lon="05.693086"><ele>39</ele><time>2021-03-10T13:12:57Z</time><cmt>5.0 kmh</cmt></trkpt>
<trkpt lat="52.015602" lon="05.693114"><ele>39</ele><time>2021-03-10T13:13:00Z</time><cmt>5.0 kmh</cmt></trkpt>
<trkpt lat="52.015648" lon="05.693151"><ele>38</ele><time>2021-03-10T13:13:04Z</time><cmt>4.3 kmh</cmt></trkpt>
<trkpt lat="52.015677" lon="05.693195"><ele>38</ele><time>2021-03-10T13:13:07Z</time><cmt>5.0 kmh</cmt></trkpt>
<trkpt lat="52.015702" lon="05.693280"><ele>39</ele><time>2021-03-10T13:13:12Z</time><cmt>5.0 kmh</cmt></trkpt>
<trkpt lat="52.015757" lon="05.693357"><ele>41</ele><time>2021-03-10T13:13:19Z</time><cmt>5.0 kmh</cmt></trkpt>
<trkpt lat="52.015811" lon="05.693345"><ele>41</ele><time>2021-03-10T13:13:22Z</time><cmt>5.3 kmh</cmt></trkpt>
<trkpt lat="52.015848" lon="05.693331"><ele>42</ele><time>2021-03-10T13:13:24Z</time><cmt>5.3 kmh</cmt></trkpt>
<trkpt lat="52.015874" lon="05.693395"><ele>43</ele><time>2021-03-10T13:13:28Z</time><cmt>5.0 kmh</cmt></trkpt>
<trkpt lat="52.015901" lon="05.693460"><ele>43</ele><time>2021-03-10T13:13:32Z</time><cmt>4.3 kmh</cmt></trkpt>
<trkpt lat="52.015922" lon="05.693533"><ele>44</ele><time>2021-03-10T13:13:36Z</time><cmt>4.3 kmh</cmt></trkpt>
<trkpt lat="52.015951" lon="05.693589"><ele>45</ele><time>2021-03-10T13:13:39Z</time><cmt>5.9 kmh</cmt></trkpt>
<trkpt lat="52.015994" lon="05.693621"><ele>46</ele><time>2021-03-10T13:13:44Z</time><cmt>5.0 kmh</cmt></trkpt>
<trkpt lat="52.016059" lon="05.693676"><ele>47</ele><time>2021-03-10T13:13:52Z</time><cmt>5.0 kmh</cmt></trkpt>
<trkpt lat="52.016086" lon="05.693750"><ele>48</ele><time>2021-03-10T13:13:57Z</time><cmt>4.3 kmh</cmt></trkpt>
<trkpt lat="52.016125" lon="05.693761"><ele>50</ele><time>2021-03-10T13:14:00Z</time><cmt>5.0 kmh</cmt></trkpt>
<trkpt lat="52.016177" lon="05.693941"><ele>59</ele><time>2021-03-10T13:14:13Z</time><cmt>5.0 kmh</cmt></trkpt>
<trkpt lat="52.016184" lon="05.694012"><ele>61</ele><time>2021-03-10T13:14:17Z</time><cmt>3.5 kmh</cmt></trkpt>
<trkpt lat="52.016182" lon="05.694090"><ele>62</ele><time>2021-03-10T13:14:22Z</time><cmt>4.3 kmh</cmt></trkpt>
<trkpt lat="52.016224" lon="05.694102"><ele>62</ele><time>2021-03-10T13:14:24Z</time><cmt>7.0 kmh</cmt></trkpt>
<trkpt lat="52.016278" lon="05.694119"><ele>60</ele><time>2021-03-10T13:14:27Z</time><cmt>6.1 kmh</cmt></trkpt>
<trkpt lat="52.016334" lon="05.694152"><ele>58</ele><time>2021-03-10T13:14:30Z</time><cmt>5.6 kmh</cmt></trkpt>
<trkpt lat="52.016381" lon="05.694161"><ele>56</ele><time>2021-03-10T13:14:32Z</time><cmt>6.3 kmh</cmt></trkpt>
<trkpt lat="52.016418" lon="05.694162"><ele>55</ele><time>2021-03-10T13:14:34Z</time><cmt>5.3 kmh</cmt></trkpt>
<trkpt lat="52.016463" lon="05.694184"><ele>53</ele><time>2021-03-10T13:14:37Z</time><cmt>5.0 kmh</cmt></trkpt>
<trkpt lat="52.016495" lon="05.694235"><ele>52</ele><time>2021-03-10T13:14:42Z</time><cmt>4.3 kmh</cmt></trkpt>
<trkpt lat="52.016547" lon="05.694233"><ele>50</ele><time>2021-03-10T13:14:49Z</time><cmt>4.3 kmh</cmt></trkpt>
<trkpt lat="52.016558" lon="05.694333"><ele>49</ele><time>2021-03-10T13:14:56Z</time><cmt>5.0 kmh</cmt></trkpt>
<trkpt lat="52.016580" lon="05.694427"><ele>50</ele><time>2021-03-10T13:15:01Z</time><cmt>5.0 kmh</cmt></trkpt>
<trkpt lat="52.016638" lon="05.694461"><ele>51</ele><time>2021-03-10T13:15:05Z</time><cmt>5.0 kmh</cmt></trkpt>
<trkpt lat="52.016688" lon="05.694438"><ele>52</ele><time>2021-03-10T13:15:10Z</time><cmt>4.8 kmh</cmt></trkpt>
<trkpt lat="52.016739" lon="05.694401"><ele>53</ele><time>2021-03-10T13:15:12Z</time><cmt>5.4 kmh</cmt></trkpt>
<trkpt lat="52.016797" lon="05.694358"><ele>53</ele><time>2021-03-10T13:15:14Z</time><cmt>7.2 kmh</cmt></trkpt>
<trkpt lat="52.016839" lon="05.694320"><ele>53</ele><time>2021-03-10T13:15:16Z</time><cmt>6.8 kmh</cmt></trkpt>
<trkpt lat="52.016858" lon="05.694254"><ele>54</ele><time>2021-03-10T13:15:19Z</time><cmt>4.4 kmh</cmt></trkpt>
<trkpt lat="52.016853" lon="05.694155"><ele>56</ele><time>2021-03-10T13:15:31Z</time><cmt>5.0 kmh</cmt></trkpt>
<trkpt lat="52.016888" lon="05.694103"><ele>57</ele><time>2021-03-10T13:15:37Z</time><cmt>4.3 kmh</cmt></trkpt>
<trkpt lat="52.016923" lon="05.694041"><ele>58</ele><time>2021-03-10T13:15:40Z</time><cmt>5.0 kmh</cmt></trkpt>
<trkpt lat="52.016951" lon="05.693984"><ele>59</ele><time>2021-03-10T13:15:44Z</time><cmt>3.5 kmh</cmt></trkpt>
<trkpt lat="52.016972" lon="05.693934"><ele>60</ele><time>2021-03-10T13:15:49Z</time><cmt>3.9 kmh</cmt></trkpt>
<trkpt lat="52.017018" lon="05.693845"><ele>62</ele><time>2021-03-10T13:15:59Z</time><cmt>5.0 kmh</cmt></trkpt>
<trkpt lat="52.017048" lon="05.693798"><ele>61</ele><time>2021-03-10T13:16:02Z</time><cmt>5.0 kmh</cmt></trkpt>
<trkpt lat="52.017070" lon="05.693757"><ele>60</ele><time>2021-03-10T13:16:06Z</time><cmt>2.6 kmh</cmt></trkpt>
<trkpt lat="52.017091" lon="05.693712"><ele>59</ele><time>2021-03-10T13:16:09Z</time><cmt>5.0 kmh</cmt></trkpt>
<trkpt lat="52.017123" lon="05.693656"><ele>58</ele><time>2021-03-10T13:16:13Z</time><cmt>4.8 kmh</cmt></trkpt>
<trkpt lat="52.017148" lon="05.693607"><ele>56</ele><time>2021-03-10T13:16:17Z</time><cmt>3.5 kmh</cmt></trkpt>
<trkpt lat="52.017174" lon="05.693537"><ele>52</ele><time>2021-03-10T13:16:25Z</time><cmt>5.3 kmh</cmt></trkpt>
<trkpt lat="52.017214" lon="05.693495"><ele>51</ele><time>2021-03-10T13:16:28Z</time><cmt>6.3 kmh</cmt></trkpt>
<trkpt lat="52.017247" lon="05.693422"><ele>49</ele><time>2021-03-10T13:16:31Z</time><cmt>6.5 kmh</cmt></trkpt>
<trkpt lat="52.017274" lon="05.693345"><ele>47</ele><time>2021-03-10T13:16:36Z</time><cmt>5.0 kmh</cmt></trkpt>
<trkpt lat="52.017308" lon="05.693267"><ele>45</ele><time>2021-03-10T13:16:42Z</time><cmt>5.0 kmh</cmt></trkpt>
<trkpt lat="52.017338" lon="05.693214"><ele>44</ele><time>2021-03-10T13:16:45Z</time><cmt>5.0 kmh</cmt></trkpt>
<trkpt lat="52.017369" lon="05.693150"><ele>43</ele><time>2021-03-10T13:16:50Z</time><cmt>4.3 kmh</cmt></trkpt>
<trkpt lat="52.017391" lon="05.693079"><ele>42</ele><time>2021-03-10T13:16:54Z</time><cmt>5.4 kmh</cmt></trkpt>
<trkpt lat="52.017423" lon="05.693033"><ele>41</ele><time>2021-03-10T13:16:58Z</time><cmt>5.7 kmh</cmt></trkpt>
<trkpt lat="52.017443" lon="05.692961"><ele>40</ele><time>2021-03-10T13:17:03Z</time><cmt>5.0 kmh</cmt></trkpt>
<trkpt lat="52.017478" lon="05.692900"><ele>40</ele><time>2021-03-10T13:17:07Z</time><cmt>5.0 kmh</cmt></trkpt>
<trkpt lat="52.017497" lon="05.692823"><ele>40</ele><time>2021-03-10T13:17:13Z</time><cmt>5.4 kmh</cmt></trkpt>
<trkpt lat="52.017521" lon="05.692752"><ele>41</ele><time>2021-03-10T13:17:16Z</time><cmt>5.0 kmh</cmt></trkpt>
<trkpt lat="52.017540" lon="05.692674"><ele>42</ele><time>2021-03-10T13:17:20Z</time><cmt>5.0 kmh</cmt></trkpt>
<trkpt lat="52.017570" lon="05.692608"><ele>45</ele><time>2021-03-10T13:17:26Z</time><cmt>4.3 kmh</cmt></trkpt>
<trkpt lat="52.017608" lon="05.692555"><ele>48</ele><time>2021-03-10T13:17:31Z</time><cmt>5.5 kmh</cmt></trkpt>
<trkpt lat="52.017642" lon="05.692489"><ele>48</ele><time>2021-03-10T13:17:33Z</time><cmt>7.7 kmh</cmt></trkpt>
<trkpt lat="52.017674" lon="05.692423"><ele>49</ele><time>2021-03-10T13:17:37Z</time><cmt>6.0 kmh</cmt></trkpt>
<trkpt lat="52.017703" lon="05.692306"><ele>51</ele><time>2021-03-10T13:17:41Z</time><cmt>6.4 kmh</cmt></trkpt>
<trkpt lat="52.017705" lon="05.692222"><ele>52</ele><time>2021-03-10T13:17:47Z</time><cmt>5.0 kmh</cmt></trkpt>
<trkpt lat="52.017738" lon="05.692170"><ele>52</ele><time>2021-03-10T13:17:52Z</time><cmt>5.8 kmh</cmt></trkpt>
<trkpt lat="52.017754" lon="05.692088"><ele>51</ele><time>2021-03-10T13:18:00Z</time><cmt>5.1 kmh</cmt></trkpt>
<trkpt lat="52.017788" lon="05.692025"><ele>51</ele><time>2021-03-10T13:18:03Z</time><cmt>6.9 kmh</cmt></trkpt>
<trkpt lat="52.017843" lon="05.691926"><ele>50</ele><time>2021-03-10T13:18:07Z</time><cmt>8.9 kmh</cmt></trkpt>
<trkpt lat="52.017886" lon="05.691884"><ele>50</ele><time>2021-03-10T13:18:09Z</time><cmt>7.5 kmh</cmt></trkpt>
<trkpt lat="52.017909" lon="05.691791"><ele>49</ele><time>2021-03-10T13:18:16Z</time><cmt>5.0 kmh</cmt></trkpt>
<trkpt lat="52.017927" lon="05.691703"><ele>47</ele><time>2021-03-10T13:18:21Z</time><cmt>5.0 kmh</cmt></trkpt>
<trkpt lat="52.017945" lon="05.691605"><ele>47</ele><time>2021-03-10T13:18:27Z</time><cmt>5.0 kmh</cmt></trkpt>
<trkpt lat="52.017971" lon="05.691547"><ele>46</ele><time>2021-03-10T13:18:30Z</time><cmt>5.0 kmh</cmt></trkpt>
<trkpt lat="52.017976" lon="05.691462"><ele>45</ele><time>2021-03-10T13:18:37Z</time><cmt>4.3 kmh</cmt></trkpt>
<trkpt lat="52.018012" lon="05.691376"><ele>45</ele><time>2021-03-10T13:18:41Z</time><cmt>5.0 kmh</cmt></trkpt>
<trkpt lat="52.018035" lon="05.691296"><ele>44</ele><time>2021-03-10T13:18:44Z</time><cmt>5.3 kmh</cmt></trkpt>
<trkpt lat="52.018067" lon="05.691231"><ele>44</ele><time>2021-03-10T13:18:47Z</time><cmt>5.8 kmh</cmt></trkpt>
<trkpt lat="52.018107" lon="05.691177"><ele>44</ele><time>2021-03-10T13:18:51Z</time><cmt>5.2 kmh</cmt></trkpt>
<trkpt lat="52.018141" lon="05.691094"><ele>44</ele><time>2021-03-10T13:18:55Z</time><cmt>5.0 kmh</cmt></trkpt>
<trkpt lat="52.018177" lon="05.691023"><ele>45</ele><time>2021-03-10T13:18:58Z</time><cmt>5.2 kmh</cmt></trkpt>
<trkpt lat="52.018218" lon="05.690960"><ele>45</ele><time>2021-03-10T13:19:04Z</time><cmt>5.4 kmh</cmt></trkpt>
<trkpt lat="52.018244" lon="05.690882"><ele>45</ele><time>2021-03-10T13:19:07Z</time><cmt>5.3 kmh</cmt></trkpt>
<trkpt lat="52.018283" lon="05.690797"><ele>45</ele><time>2021-03-10T13:19:09Z</time><cmt>6.4 kmh</cmt></trkpt>
<trkpt lat="52.018301" lon="05.690709"><ele>46</ele><time>2021-03-10T13:19:17Z</time><cmt>5.3 kmh</cmt></trkpt>
<trkpt lat="52.018306" lon="05.690598"><ele>47</ele><time>2021-03-10T13:19:25Z</time><cmt>5.0 kmh</cmt></trkpt>
<trkpt lat="52.018344" lon="05.690524"><ele>48</ele><time>2021-03-10T13:19:30Z</time><cmt>5.0 kmh</cmt></trkpt>
<trkpt lat="52.018377" lon="05.690445"><ele>48</ele><time>2021-03-10T13:19:36Z</time><cmt>5.6 kmh</cmt></trkpt>
<trkpt lat="52.018432" lon="05.690382"><ele>48</ele><time>2021-03-10T13:19:43Z</time><cmt>5.0 kmh</cmt></trkpt>
<trkpt lat="52.018481" lon="05.690332"><ele>48</ele><time>2021-03-10T13:19:45Z</time><cmt>7.1 kmh</cmt></trkpt>
<trkpt lat="52.018531" lon="05.690275"><ele>47</ele><time>2021-03-10T13:19:47Z</time><cmt>6.1 kmh</cmt></trkpt>
<trkpt lat="52.018507" lon="05.690192"><ele>44</ele><time>2021-03-10T13:19:53Z</time><cmt>5.0 kmh</cmt></trkpt>
<trkpt lat="52.018428" lon="05.690154"><ele>43</ele><time>2021-03-10T13:19:59Z</time><cmt>5.0 kmh</cmt></trkpt>
<trkpt lat="52.018465" lon="05.690100"><ele>43</ele><time>2021-03-10T13:20:02Z</time><cmt>5.5 kmh</cmt></trkpt>
<trkpt lat="52.018512" lon="05.690051"><ele>44</ele><time>2021-03-10T13:20:05Z</time><cmt>5.0 kmh</cmt></trkpt>
<trkpt lat="52.018538" lon="05.689957"><ele>46</ele><time>2021-03-10T13:20:10Z</time><cmt>5.6 kmh</cmt></trkpt>
<trkpt lat="52.018493" lon="05.689840"><ele>49</ele><time>2021-03-10T13:20:24Z</time><cmt>5.0 kmh</cmt></trkpt>
<trkpt lat="52.018534" lon="05.689784"><ele>51</ele><time>2021-03-10T13:20:28Z</time><cmt>5.1 kmh</cmt></trkpt>
<trkpt lat="52.018571" lon="05.689690"><ele>53</ele><time>2021-03-10T13:20:35Z</time><cmt>5.0 kmh</cmt></trkpt>
<trkpt lat="52.018607" lon="05.689611"><ele>53</ele><time>2021-03-10T13:20:41Z</time><cmt>5.0 kmh</cmt></trkpt>
<trkpt lat="52.018621" lon="05.689505"><ele>51</ele><time>2021-03-10T13:20:53Z</time><cmt>5.8 kmh</cmt></trkpt>
<trkpt lat="52.018659" lon="05.689425"><ele>50</ele><time>2021-03-10T13:20:56Z</time><cmt>5.0 kmh</cmt></trkpt>
<trkpt lat="52.018688" lon="05.689347"><ele>49</ele><time>2021-03-10T13:20:58Z</time><cmt>5.6 kmh</cmt></trkpt>
<trkpt lat="52.018722" lon="05.689277"><ele>48</ele><time>2021-03-10T13:21:00Z</time><cmt>5.8 kmh</cmt></trkpt>
<trkpt lat="52.018746" lon="05.689198"><ele>43</ele><time>2021-03-10T13:21:09Z</time><cmt>5.0 kmh</cmt></trkpt>
<trkpt lat="52.018777" lon="05.689129"><ele>41</ele><time>2021-03-10T13:21:12Z</time><cmt>5.0 kmh</cmt></trkpt>
<trkpt lat="52.018776" lon="05.689030"><ele>39</ele><time>2021-03-10T13:21:17Z</time><cmt>5.0 kmh</cmt></trkpt>
<trkpt lat="52.018761" lon="05.688951"><ele>39</ele><time>2021-03-10T13:21:22Z</time><cmt>4.3 kmh</cmt></trkpt>
<trkpt lat="52.018788" lon="05.688865"><ele>40</ele><time>2021-03-10T13:21:26Z</time><cmt>8.2 kmh</cmt></trkpt>
<trkpt lat="52.018829" lon="05.688821"><ele>40</ele><time>2021-03-10T13:21:28Z</time><cmt>8.2 kmh</cmt></trkpt>
<trkpt lat="52.018887" lon="05.688759"><ele>40</ele><time>2021-03-10T13:21:32Z</time><cmt>6.3 kmh</cmt></trkpt>
<trkpt lat="52.018923" lon="05.688673"><ele>40</ele><time>2021-03-10T13:21:34Z</time><cmt>9.5 kmh</cmt></trkpt>
<trkpt lat="52.018950" lon="05.688588"><ele>39</ele><time>2021-03-10T13:21:38Z</time><cmt>8.0 kmh</cmt></trkpt>
<trkpt lat="52.018959" lon="05.688490"><ele>37</ele><time>2021-03-10T13:21:44Z</time><cmt>5.5 kmh</cmt></trkpt>
<trkpt lat="52.018994" lon="05.688388"><ele>36</ele><time>2021-03-10T13:21:47Z</time><cmt>6.2 kmh</cmt></trkpt>
<trkpt lat="52.019000" lon="05.688267"><ele>35</ele><time>2021-03-10T13:21:55Z</time><cmt>5.0 kmh</cmt></trkpt>
<trkpt lat="52.018951" lon="05.688235"><ele>39</ele><time>2021-03-10T13:22:03Z</time><cmt>4.3 kmh</cmt></trkpt>
<trkpt lat="52.018974" lon="05.688118"><ele>41</ele><time>2021-03-10T13:22:09Z</time><cmt>5.7 kmh</cmt></trkpt>
<trkpt lat="52.018998" lon="05.688037"><ele>44</ele><time>2021-03-10T13:22:15Z</time><cmt>5.0 kmh</cmt></trkpt>
<trkpt lat="52.019019" lon="05.687945"><ele>44</ele><time>2021-03-10T13:22:18Z</time><cmt>5.2 kmh</cmt></trkpt>
<trkpt lat="52.019056" lon="05.687844"><ele>44</ele><time>2021-03-10T13:22:21Z</time><cmt>6.2 kmh</cmt></trkpt>
<trkpt lat="52.019102" lon="05.687779"><ele>44</ele><time>2021-03-10T13:22:24Z</time><cmt>7.6 kmh</cmt></trkpt>
<trkpt lat="52.019064" lon="05.687675"><ele>36</ele><time>2021-03-10T13:22:41Z</time><cmt>5.0 kmh</cmt></trkpt>
<trkpt lat="52.019080" lon="05.687591"><ele>36</ele><time>2021-03-10T13:22:46Z</time><cmt>4.3 kmh</cmt></trkpt>
<trkpt lat="52.019045" lon="05.687531"><ele>35</ele><time>2021-03-10T13:22:50Z</time><cmt>4.8 kmh</cmt></trkpt>
<trkpt lat="52.019053" lon="05.687431"><ele>35</ele><time>2021-03-10T13:23:01Z</time><cmt>5.0 kmh</cmt></trkpt>
<trkpt lat="52.019060" lon="05.687341"><ele>35</ele><time>2021-03-10T13:23:07Z</time><cmt>5.3 kmh</cmt></trkpt>
<trkpt lat="52.019038" lon="05.687201"><ele>38</ele><time>2021-03-10T13:23:18Z</time><cmt>5.0 kmh</cmt></trkpt>
<trkpt lat="52.019026" lon="05.687086"><ele>42</ele><time>2021-03-10T13:23:24Z</time><cmt>5.0 kmh</cmt></trkpt>
<trkpt lat="52.019046" lon="05.687004"><ele>43</ele><time>2021-03-10T13:23:29Z</time><cmt>5.0 kmh</cmt></trkpt>
<trkpt lat="52.019082" lon="05.686930"><ele>44</ele><time>2021-03-10T13:23:32Z</time><cmt>6.4 kmh</cmt></trkpt>
<trkpt lat="52.019083" lon="05.686816"><ele>43</ele><time>2021-03-10T13:23:38Z</time><cmt>5.5 kmh</cmt></trkpt>
<trkpt lat="52.019109" lon="05.686746"><ele>42</ele><time>2021-03-10T13:23:40Z</time><cmt>6.9 kmh</cmt></trkpt>
<trkpt lat="52.019091" lon="05.686670"><ele>41</ele><time>2021-03-10T13:23:46Z</time><cmt>5.0 kmh</cmt></trkpt>
<trkpt lat="52.019066" lon="05.686611"><ele>39</ele><time>2021-03-10T13:23:50Z</time><cmt>3.5 kmh</cmt></trkpt>
<trkpt lat="52.019050" lon="05.686532"><ele>37</ele><time>2021-03-10T13:23:54Z</time><cmt>5.3 kmh</cmt></trkpt>
<trkpt lat="52.019033" lon="05.686416"><ele>35</ele><time>2021-03-10T13:24:01Z</time><cmt>6.4 kmh</cmt></trkpt>
<trkpt lat="52.019034" lon="05.686306"><ele>34</ele><time>2021-03-10T13:24:07Z</time><cmt>5.0 kmh</cmt></trkpt>
<trkpt lat="52.019019" lon="05.686201"><ele>32</ele><time>2021-03-10T13:24:12Z</time><cmt>5.3 kmh</cmt></trkpt>
<trkpt lat="52.019030" lon="05.686102"><ele>32</ele><time>2021-03-10T13:24:16Z</time><cmt>5.1 kmh</cmt></trkpt>
<trkpt lat="52.018996" lon="05.686033"><ele>31</ele><time>2021-03-10T13:24:21Z</time><cmt>5.0 kmh</cmt></trkpt>
<trkpt lat="52.018956" lon="05.685981"><ele>31</ele><time>2021-03-10T13:24:25Z</time><cmt>4.8 kmh</cmt></trkpt>
<trkpt lat="52.018952" lon="05.685871"><ele>29</ele><time>2021-03-10T13:24:33Z</time><cmt>5.0 kmh</cmt></trkpt>
<trkpt lat="52.018968" lon="05.685778"><ele>29</ele><time>2021-03-10T13:24:36Z</time><cmt>5.0 kmh</cmt></trkpt>
<trkpt lat="52.018983" lon="05.685628"><ele>26</ele><time>2021-03-10T13:24:47Z</time><cmt>5.0 kmh</cmt></trkpt>
<trkpt lat="52.019007" lon="05.685540"><ele>24</ele><time>2021-03-10T13:24:51Z</time><cmt>5.0 kmh</cmt></trkpt>
<trkpt lat="52.018998" lon="05.685447"><ele>22</ele><time>2021-03-10T13:24:56Z</time><cmt>5.0 kmh</cmt></trkpt>
<trkpt lat="52.018991" lon="05.685351"><ele>21</ele><time>2021-03-10T13:25:00Z</time><cmt>5.0 kmh</cmt></trkpt>
<trkpt lat="52.018954" lon="05.685260"><ele>22</ele><time>2021-03-10T13:25:06Z</time><cmt>5.0 kmh</cmt></trkpt>
<trkpt lat="52.018950" lon="05.685170"><ele>22</ele><time>2021-03-10T13:25:11Z</time><cmt>5.0 kmh</cmt></trkpt>
<trkpt lat="52.018940" lon="05.685073"><ele>22</ele><time>2021-03-10T13:25:16Z</time><cmt>5.0 kmh</cmt></trkpt>
<trkpt lat="52.018930" lon="05.684956"><ele>23</ele><time>2021-03-10T13:25:22Z</time><cmt>5.0 kmh</cmt></trkpt>
<trkpt lat="52.018912" lon="05.684878"><ele>24</ele><time>2021-03-10T13:25:28Z</time><cmt>4.8 kmh</cmt></trkpt>
<trkpt lat="52.018904" lon="05.684810"><ele>24</ele><time>2021-03-10T13:25:32Z</time><cmt>3.5 kmh</cmt></trkpt>
<trkpt lat="52.018899" lon="05.684754"><ele>24</ele><time>2021-03-10T13:25:35Z</time><cmt>5.0 kmh</cmt></trkpt>
<trkpt lat="52.018886" lon="05.684710"><ele>24</ele><time>2021-03-10T13:25:38Z</time><cmt>5.0 kmh</cmt></trkpt>
<trkpt lat="52.018877" lon="05.684626"><ele>26</ele><time>2021-03-10T13:25:43Z</time><cmt>4.3 kmh</cmt></trkpt>
<trkpt lat="52.018873" lon="05.684570"><ele>26</ele><time>2021-03-10T13:25:45Z</time><cmt>5.2 kmh</cmt></trkpt>
<trkpt lat="52.018866" lon="05.684526"><ele>26</ele><time>2021-03-10T13:25:47Z</time><cmt>5.2 kmh</cmt></trkpt>
<trkpt lat="52.018865" lon="05.684478"><ele>26</ele><time>2021-03-10T13:25:50Z</time><cmt>3.3 kmh</cmt></trkpt>
<trkpt lat="52.018862" lon="05.684431"><ele>26</ele><time>2021-03-10T13:25:54Z</time><cmt>2.9 kmh</cmt></trkpt>
<trkpt lat="52.018848" lon="05.684396"><ele>25</ele><time>2021-03-10T13:25:57Z</time><cmt>4.3 kmh</cmt></trkpt>
<trkpt lat="52.018832" lon="05.684350"><ele>25</ele><time>2021-03-10T13:26:00Z</time><cmt>4.8 kmh</cmt></trkpt>
<trkpt lat="52.018827" lon="05.684308"><ele>25</ele><time>2021-03-10T13:26:02Z</time><cmt>4.3 kmh</cmt></trkpt>
<trkpt lat="52.018821" lon="05.684250"><ele>24</ele><time>2021-03-10T13:26:05Z</time><cmt>4.3 kmh</cmt></trkpt>
<trkpt lat="52.018822" lon="05.684211"><ele>24</ele><time>2021-03-10T13:26:07Z</time><cmt>4.8 kmh</cmt></trkpt>
<trkpt lat="52.018814" lon="05.684172"><ele>24</ele><time>2021-03-10T13:26:09Z</time><cmt>3.5 kmh</cmt></trkpt>
<trkpt lat="52.018791" lon="05.684100"><ele>23</ele><time>2021-03-10T13:26:13Z</time><cmt>4.8 kmh</cmt></trkpt>
<trkpt lat="52.018779" lon="05.684053"><ele>24</ele><time>2021-03-10T13:26:16Z</time><cmt>5.0 kmh</cmt></trkpt>
<trkpt lat="52.018782" lon="05.683994"><ele>24</ele><time>2021-03-10T13:26:19Z</time><cmt>5.0 kmh</cmt></trkpt>
<trkpt lat="52.018814" lon="05.683921"><ele>25</ele><time>2021-03-10T13:26:24Z</time><cmt>5.0 kmh</cmt></trkpt>
<trkpt lat="52.018826" lon="05.683880"><ele>25</ele><time>2021-03-10T13:26:27Z</time><cmt>5.0 kmh</cmt></trkpt>
<trkpt lat="52.018810" lon="05.683826"><ele>25</ele><time>2021-03-10T13:26:30Z</time><cmt>5.0 kmh</cmt></trkpt>
<trkpt lat="52.018799" lon="05.683778"><ele>24</ele><time>2021-03-10T13:26:33Z</time><cmt>5.0 kmh</cmt></trkpt>
<trkpt lat="52.018777" lon="05.683748"><ele>24</ele><time>2021-03-10T13:26:36Z</time><cmt>5.0 kmh</cmt></trkpt>
<trkpt lat="52.018766" lon="05.683695"><ele>24</ele><time>2021-03-10T13:26:38Z</time><cmt>6.3 kmh</cmt></trkpt>
<trkpt lat="52.018762" lon="05.683644"><ele>23</ele><time>2021-03-10T13:26:40Z</time><cmt>6.3 kmh</cmt></trkpt>
<trkpt lat="52.018750" lon="05.683564"><ele>22</ele><time>2021-03-10T13:26:45Z</time><cmt>4.8 kmh</cmt></trkpt>
<trkpt lat="52.018735" lon="05.683513"><ele>22</ele><time>2021-03-10T13:26:48Z</time><cmt>5.0 kmh</cmt></trkpt>
<trkpt lat="52.018723" lon="05.683462"><ele>21</ele><time>2021-03-10T13:26:51Z</time><cmt>5.0 kmh</cmt></trkpt>
<trkpt lat="52.018725" lon="05.683409"><ele>21</ele><time>2021-03-10T13:26:54Z</time><cmt>5.0 kmh</cmt></trkpt>
<trkpt lat="52.018712" lon="05.683359"><ele>20</ele><time>2021-03-10T13:26:57Z</time><cmt>5.0 kmh</cmt></trkpt>
<trkpt lat="52.018709" lon="05.683292"><ele>19</ele><time>2021-03-10T13:27:00Z</time><cmt>5.0 kmh</cmt></trkpt>
<trkpt lat="52.018706" lon="05.683211"><ele>19</ele><time>2021-03-10T13:27:03Z</time><cmt>5.0 kmh</cmt></trkpt>
<trkpt lat="52.018686" lon="05.683181"><ele>18</ele><time>2021-03-10T13:27:05Z</time><cmt>5.0 kmh</cmt></trkpt>
<trkpt lat="52.018669" lon="05.683152"><ele>18</ele><time>2021-03-10T13:27:07Z</time><cmt>4.3 kmh</cmt></trkpt>
<trkpt lat="52.018671" lon="05.683078"><ele>18</ele><time>2021-03-10T13:27:11Z</time><cmt>4.8 kmh</cmt></trkpt>
<trkpt lat="52.018684" lon="05.683015"><ele>18</ele><time>2021-03-10T13:27:14Z</time><cmt>5.0 kmh</cmt></trkpt>
<trkpt lat="52.018695" lon="05.682936"><ele>18</ele><time>2021-03-10T13:27:17Z</time><cmt>5.0 kmh</cmt></trkpt>
<trkpt lat="52.018694" lon="05.682882"><ele>18</ele><time>2021-03-10T13:27:19Z</time><cmt>5.0 kmh</cmt></trkpt>
<trkpt lat="52.018682" lon="05.682794"><ele>19</ele><time>2021-03-10T13:27:23Z</time><cmt>5.0 kmh</cmt></trkpt>
<trkpt lat="52.018679" lon="05.682753"><ele>20</ele><time>2021-03-10T13:27:25Z</time><cmt>5.0 kmh</cmt></trkpt>
<trkpt lat="52.018673" lon="05.682683"><ele>21</ele><time>2021-03-10T13:27:28Z</time><cmt>5.0 kmh</cmt></trkpt>
<trkpt lat="52.018659" lon="05.682637"><ele>22</ele><time>2021-03-10T13:27:31Z</time><cmt>5.0 kmh</cmt></trkpt>
<trkpt lat="52.018662" lon="05.682596"><ele>23</ele><time>2021-03-10T13:27:33Z</time><cmt>4.3 kmh</cmt></trkpt>
<trkpt lat="52.018670" lon="05.682522"><ele>24</ele><time>2021-03-10T13:27:38Z</time><cmt>5.0 kmh</cmt></trkpt>
<trkpt lat="52.018662" lon="05.682463"><ele>24</ele><time>2021-03-10T13:27:42Z</time><cmt>3.9 kmh</cmt></trkpt>
<trkpt lat="52.018657" lon="05.682416"><ele>23</ele><time>2021-03-10T13:27:47Z</time><cmt>2.6 kmh</cmt></trkpt>
<trkpt lat="52.018649" lon="05.682352"><ele>23</ele><time>2021-03-10T13:27:51Z</time><cmt>3.5 kmh</cmt></trkpt>
<trkpt lat="52.018643" lon="05.682295"><ele>22</ele><time>2021-03-10T13:27:56Z</time><cmt>2.9 kmh</cmt></trkpt>
<trkpt lat="52.018622" lon="05.682232"><ele>21</ele><time>2021-03-10T13:27:59Z</time><cmt>5.0 kmh</cmt></trkpt>
<trkpt lat="52.018599" lon="05.682181"><ele>19</ele><time>2021-03-10T13:28:02Z</time><cmt>5.0 kmh</cmt></trkpt>
<trkpt lat="52.018606" lon="05.682080"><ele>18</ele><time>2021-03-10T13:28:08Z</time><cmt>5.0 kmh</cmt></trkpt>
<trkpt lat="52.018606" lon="05.682014"><ele>18</ele><time>2021-03-10T13:28:12Z</time><cmt>3.5 kmh</cmt></trkpt>
<trkpt lat="52.018603" lon="05.681969"><ele>19</ele><time>2021-03-10T13:28:14Z</time><cmt>5.0 kmh</cmt></trkpt>
<trkpt lat="52.018590" lon="05.681926"><ele>19</ele><time>2021-03-10T13:28:16Z</time><cmt>5.0 kmh</cmt></trkpt>
<trkpt lat="52.018579" lon="05.681884"><ele>18</ele><time>2021-03-10T13:28:18Z</time><cmt>5.0 kmh</cmt></trkpt>
<trkpt lat="52.018550" lon="05.681813"><ele>18</ele><time>2021-03-10T13:28:22Z</time><cmt>4.3 kmh</cmt></trkpt>
<trkpt lat="52.018539" lon="05.681736"><ele>18</ele><time>2021-03-10T13:28:25Z</time><cmt>6.0 kmh</cmt></trkpt>
<trkpt lat="52.018512" lon="05.681631"><ele>19</ele><time>2021-03-10T13:28:30Z</time><cmt>5.0 kmh</cmt></trkpt>
<trkpt lat="52.018487" lon="05.681603"><ele>20</ele><time>2021-03-10T13:28:33Z</time><cmt>5.0 kmh</cmt></trkpt>
<trkpt lat="52.018484" lon="05.681552"><ele>21</ele><time>2021-03-10T13:28:37Z</time><cmt>2.6 kmh</cmt></trkpt>
<trkpt lat="52.018498" lon="05.681508"><ele>21</ele><time>2021-03-10T13:28:39Z</time><cmt>5.0 kmh</cmt></trkpt>
<trkpt lat="52.018504" lon="05.681446"><ele>22</ele><time>2021-03-10T13:28:42Z</time><cmt>5.0 kmh</cmt></trkpt>
<trkpt lat="52.018502" lon="05.681398"><ele>23</ele><time>2021-03-10T13:28:44Z</time><cmt>5.0 kmh</cmt></trkpt>
<trkpt lat="52.018494" lon="05.681339"><ele>23</ele><time>2021-03-10T13:28:47Z</time><cmt>5.0 kmh</cmt></trkpt>
<trkpt lat="52.018506" lon="05.681297"><ele>23</ele><time>2021-03-10T13:28:49Z</time><cmt>5.0 kmh</cmt></trkpt>
<trkpt lat="52.018517" lon="05.681262"><ele>24</ele><time>2021-03-10T13:28:51Z</time><cmt>4.3 kmh</cmt></trkpt>
<trkpt lat="52.018531" lon="05.681231"><ele>24</ele><time>2021-03-10T13:28:54Z</time><cmt>3.5 kmh</cmt></trkpt>
<trkpt lat="52.018517" lon="05.681179"><ele>25</ele><time>2021-03-10T13:28:57Z</time><cmt>4.3 kmh</cmt></trkpt>
<trkpt lat="52.018495" lon="05.681142"><ele>25</ele><time>2021-03-10T13:29:00Z</time><cmt>5.0 kmh</cmt></trkpt>
<trkpt lat="52.018493" lon="05.681091"><ele>25</ele><time>2021-03-10T13:29:04Z</time><cmt>2.6 kmh</cmt></trkpt>
<trkpt lat="52.018482" lon="05.681042"><ele>24</ele><time>2021-03-10T13:29:07Z</time><cmt>5.0 kmh</cmt></trkpt>
<trkpt lat="52.018451" lon="05.681016"><ele>23</ele><time>2021-03-10T13:29:10Z</time><cmt>5.0 kmh</cmt></trkpt>
<trkpt lat="52.018430" lon="05.680971"><ele>23</ele><time>2021-03-10T13:29:14Z</time><cmt>2.6 kmh</cmt></trkpt>
<trkpt lat="52.018427" lon="05.680908"><ele>22</ele><time>2021-03-10T13:29:17Z</time><cmt>5.0 kmh</cmt></trkpt>
<trkpt lat="52.018422" lon="05.680848"><ele>21</ele><time>2021-03-10T13:29:19Z</time><cmt>5.0 kmh</cmt></trkpt>
<trkpt lat="52.018421" lon="05.680787"><ele>21</ele><time>2021-03-10T13:29:21Z</time><cmt>5.0 kmh</cmt></trkpt>
<trkpt lat="52.018415" lon="05.680718"><ele>20</ele><time>2021-03-10T13:29:23Z</time><cmt>5.4 kmh</cmt></trkpt>
<trkpt lat="52.018410" lon="05.680626"><ele>19</ele><time>2021-03-10T13:29:27Z</time><cmt>5.0 kmh</cmt></trkpt>
<trkpt lat="52.018388" lon="05.680552"><ele>16</ele><time>2021-03-10T13:29:32Z</time><cmt>4.8 kmh</cmt></trkpt>
<trkpt lat="52.018393" lon="05.680504"><ele>15</ele><time>2021-03-10T13:29:35Z</time><cmt>5.0 kmh</cmt></trkpt>
<trkpt lat="52.018409" lon="05.680461"><ele>14</ele><time>2021-03-10T13:29:38Z</time><cmt>5.0 kmh</cmt></trkpt>
<trkpt lat="52.018426" lon="05.680433"><ele>14</ele><time>2021-03-10T13:29:39Z</time><cmt>5.1 kmh</cmt></trkpt>
<trkpt lat="52.018449" lon="05.680396"><ele>13</ele><time>2021-03-10T13:29:41Z</time><cmt>5.0 kmh</cmt></trkpt>
<trkpt lat="52.018477" lon="05.680367"><ele>13</ele><time>2021-03-10T13:29:43Z</time><cmt>7.0 kmh</cmt></trkpt>
<trkpt lat="52.018520" lon="05.680320"><ele>14</ele><time>2021-03-10T13:29:45Z</time><cmt>6.3 kmh</cmt></trkpt>
<trkpt lat="52.018551" lon="05.680280"><ele>14</ele><time>2021-03-10T13:29:47Z</time><cmt>5.4 kmh</cmt></trkpt>
<trkpt lat="52.018577" lon="05.680250"><ele>14</ele><time>2021-03-10T13:29:48Z</time><cmt>6.3 kmh</cmt></trkpt>
<trkpt lat="52.018603" lon="05.680208"><ele>15</ele><time>2021-03-10T13:29:50Z</time><cmt>5.8 kmh</cmt></trkpt>
<trkpt lat="52.018622" lon="05.680165"><ele>15</ele><time>2021-03-10T13:29:52Z</time><cmt>5.2 kmh</cmt></trkpt>
<trkpt lat="52.018652" lon="05.680161"><ele>15</ele><time>2021-03-10T13:29:54Z</time><cmt>5.8 kmh</cmt></trkpt>
<trkpt lat="52.018682" lon="05.680173"><ele>16</ele><time>2021-03-10T13:29:56Z</time><cmt>5.8 kmh</cmt></trkpt>
<trkpt lat="52.018722" lon="05.680159"><ele>18</ele><time>2021-03-10T13:30:06Z</time><cmt>3.5 kmh</cmt></trkpt>
<trkpt lat="52.018746" lon="05.680131"><ele>20</ele><time>2021-03-10T13:30:09Z</time><cmt>5.0 kmh</cmt></trkpt>
<trkpt lat="52.018789" lon="05.680086"><ele>23</ele><time>2021-03-10T13:30:15Z</time><cmt>5.1 kmh</cmt></trkpt>
<trkpt lat="52.018818" lon="05.680063"><ele>24</ele><time>2021-03-10T13:30:17Z</time><cmt>5.1 kmh</cmt></trkpt>
<trkpt lat="52.018846" lon="05.680061"><ele>25</ele><time>2021-03-10T13:30:19Z</time><cmt>5.0 kmh</cmt></trkpt>
<trkpt lat="52.018875" lon="05.680082"><ele>25</ele><time>2021-03-10T13:30:21Z</time><cmt>5.0 kmh</cmt></trkpt>
<trkpt lat="52.018903" lon="05.680086"><ele>25</ele><time>2021-03-10T13:30:23Z</time><cmt>5.0 kmh</cmt></trkpt>
<trkpt lat="52.018942" lon="05.680074"><ele>26</ele><time>2021-03-10T13:30:25Z</time><cmt>5.0 kmh</cmt></trkpt>
<trkpt lat="52.018961" lon="05.680068"><ele>26</ele><time>2021-03-10T13:30:26Z</time><cmt>5.0 kmh</cmt></trkpt>
<trkpt lat="52.018987" lon="05.680068"><ele>27</ele><time>2021-03-10T13:30:28Z</time><cmt>5.0 kmh</cmt></trkpt>
<trkpt lat="52.019020" lon="05.680058"><ele>27</ele><time>2021-03-10T13:30:30Z</time><cmt>4.3 kmh</cmt></trkpt>
<trkpt lat="52.019037" lon="05.680048"><ele>27</ele><time>2021-03-10T13:30:31Z</time><cmt>5.0 kmh</cmt></trkpt>
<trkpt lat="52.019054" lon="05.680033"><ele>27</ele><time>2021-03-10T13:30:32Z</time><cmt>5.0 kmh</cmt></trkpt>
<trkpt lat="52.019083" lon="05.680006"><ele>28</ele><time>2021-03-10T13:30:34Z</time><cmt>5.0 kmh</cmt></trkpt>
<trkpt lat="52.019103" lon="05.679989"><ele>28</ele><time>2021-03-10T13:30:36Z</time><cmt>4.3 kmh</cmt></trkpt>
<trkpt lat="52.019127" lon="05.679974"><ele>28</ele><time>2021-03-10T13:30:38Z</time><cmt>3.5 kmh</cmt></trkpt>
<trkpt lat="52.019135" lon="05.679973"><ele>28</ele><time>2021-03-10T13:30:39Z</time><cmt>3.5 kmh</cmt></trkpt>
<trkpt lat="52.019168" lon="05.679976"><ele>28</ele><time>2021-03-10T13:30:42Z</time><cmt>2.9 kmh</cmt></trkpt>
<trkpt lat="52.019194" lon="05.679987"><ele>28</ele><time>2021-03-10T13:30:45Z</time><cmt>4.3 kmh</cmt></trkpt>
<trkpt lat="52.019208" lon="05.679991"><ele>28</ele><time>2021-03-10T13:30:46Z</time><cmt>2.6 kmh</cmt></trkpt>
<trkpt lat="52.019215" lon="05.679992"><ele>28</ele><time>2021-03-10T13:30:47Z</time><cmt>2.9 kmh</cmt></trkpt>
<trkpt lat="52.019224" lon="05.679993"><ele>28</ele><time>2021-03-10T13:30:48Z</time><cmt>2.9 kmh</cmt></trkpt>
<trkpt lat="52.019232" lon="05.679993"><ele>27</ele><time>2021-03-10T13:30:49Z</time><cmt>0.9 kmh</cmt></trkpt>
<trkpt lat="52.019241" lon="05.679994"><ele>27</ele><time>2021-03-10T13:30:50Z</time><cmt>0.0 kmh</cmt></trkpt>
<trkpt lat="52.019250" lon="05.679992"><ele>27</ele><time>2021-03-10T13:30:51Z</time><cmt>0.9 kmh</cmt></trkpt>
<trkpt lat="52.019264" lon="05.679989"><ele>27</ele><time>2021-03-10T13:30:52Z</time><cmt>1.7 kmh</cmt></trkpt>
<trkpt lat="52.019277" lon="05.679982"><ele>26</ele><time>2021-03-10T13:30:53Z</time><cmt>2.9 kmh</cmt></trkpt>
<trkpt lat="52.019285" lon="05.679976"><ele>26</ele><time>2021-03-10T13:30:54Z</time><cmt>3.9 kmh</cmt></trkpt>
<trkpt lat="52.019293" lon="05.679969"><ele>26</ele><time>2021-03-10T13:30:55Z</time><cmt>2.6 kmh</cmt></trkpt>
<trkpt lat="52.019301" lon="05.679964"><ele>26</ele><time>2021-03-10T13:30:56Z</time><cmt>2.6 kmh</cmt></trkpt>
<trkpt lat="52.019311" lon="05.679960"><ele>26</ele><time>2021-03-10T13:30:57Z</time><cmt>2.6 kmh</cmt></trkpt>
<trkpt lat="52.019323" lon="05.679957"><ele>26</ele><time>2021-03-10T13:30:58Z</time><cmt>2.6 kmh</cmt></trkpt>
<trkpt lat="52.019337" lon="05.679954"><ele>26</ele><time>2021-03-10T13:30:59Z</time><cmt>3.9 kmh</cmt></trkpt>
<trkpt lat="52.019357" lon="05.679945"><ele>26</ele><time>2021-03-10T13:31:01Z</time><cmt>3.9 kmh</cmt></trkpt>
<trkpt lat="52.019374" lon="05.679938"><ele>26</ele><time>2021-03-10T13:31:02Z</time><cmt>3.5 kmh</cmt></trkpt>
<trkpt lat="52.019381" lon="05.679935"><ele>26</ele><time>2021-03-10T13:31:03Z</time><cmt>2.6 kmh</cmt></trkpt>
<trkpt lat="52.019388" lon="05.679933"><ele>26</ele><time>2021-03-10T13:31:04Z</time><cmt>2.6 kmh</cmt></trkpt>
<trkpt lat="52.019394" lon="05.679934"><ele>26</ele><time>2021-03-10T13:31:05Z</time><cmt>0.9 kmh</cmt></trkpt></trkseg></trk></gpx>